createdAt,value
2023-04-18T00:03:52.842Z,71.0
2023-04-18T00:16:52.806Z,76.0
2023-04-18T00:29:52.710Z,78.0
2023-04-18T00:42:52.702Z,77.0
2023-04-18T00:55:52.726Z,79.0
2023-04-18T01:08:52.725Z,80.0
2023-04-18T01:21:52.747Z,80.0
2023-04-18T01:34:52.745Z,80.0
2023-04-18T01:47:52.788Z,80.0
2023-04-18T02:00:52.787Z,79.0
2023-04-18T02:13:52.748Z,76.0
2023-04-18T02:26:52.760Z,77.0
2023-04-18T02:39:52.758Z,79.0
2023-04-18T02:52:52.765Z,79.0
2023-04-18T03:05:52.768Z,79.0
2023-04-18T03:18:52.764Z,76.0
2023-04-18T03:31:52.773Z,77.0
2023-04-18T03:44:52.764Z,78.0
2023-04-18T03:57:52.770Z,79.0
2023-04-18T04:10:52.824Z,77.0
2023-04-18T04:24:52.787Z,78.0
2023-04-18T04:38:52.785Z,79.0
2023-04-18T04:52:52.788Z,80.0
2023-04-18T05:06:52.818Z,80.0
2023-04-18T05:20:52.808Z,81.0
2023-04-18T05:34:52.796Z,83.0
2023-04-18T05:48:52.798Z,84.0
2023-04-18T06:02:53.002Z,84.0
2023-04-18T06:16:52.825Z,82.0
2023-04-18T06:30:53.354Z,73.0
2023-04-18T06:44:52.799Z,60.0
2023-04-18T06:58:52.811Z,44.0
2023-04-18T07:12:52.816Z,44.0
2023-04-18T07:26:54.471Z,49.0
2023-04-18T07:40:53.965Z,45.0
2023-04-18T07:54:52.844Z,41.0
2023-04-18T08:08:52.842Z,38.0
2023-04-18T08:23:05.513Z,34.0
2023-04-18T08:36:52.833Z,32.0
2023-04-18T08:50:52.856Z,31.0
2023-04-18T09:04:53.023Z,31.0
2023-04-18T09:18:53.007Z,29.0
2023-04-18T09:32:53.033Z,29.0
2023-04-18T09:46:52.963Z,30.0
2023-04-18T10:00:53.076Z,29.0
2023-04-18T10:14:52.968Z,29.0
2023-04-18T10:28:52.973Z,31.0
2023-04-18T10:42:52.904Z,30.0
2023-04-18T10:56:52.882Z,30.0
2023-04-18T11:10:54.063Z,30.0
2023-04-18T11:24:52.884Z,31.0
2023-04-18T11:38:52.882Z,28.0
2023-04-18T11:52:52.891Z,31.0
2023-04-18T12:06:52.888Z,29.0
2023-04-18T12:20:52.890Z,30.0
2023-04-18T12:34:52.897Z,30.0
2023-04-18T12:48:52.886Z,31.0
2023-04-18T13:04:00.214Z,32.0
2023-04-18T13:17:52.913Z,33.0
2023-04-18T13:31:52.933Z,31.0
2023-04-18T13:45:52.961Z,34.0
2023-04-18T13:59:52.912Z,33.0
2023-04-18T14:13:52.918Z,34.0
2023-04-18T14:27:52.921Z,32.0
2023-04-18T14:41:52.962Z,33.0
2023-04-18T15:05:52.962Z,31.0
2023-04-18T15:19:53.004Z,34.0
2023-04-18T15:35:52.983Z,38.0
2023-04-18T15:49:52.992Z,41.0
2023-04-18T16:21:52.989Z,43.0
2023-04-18T17:10:53.985Z,46.0
2023-04-18T17:24:53.006Z,46.0
2023-04-18T17:38:53.012Z,48.0
2023-04-18T17:52:53.023Z,54.0
2023-04-18T18:07:53.044Z,59.0
2023-04-18T18:21:53.055Z,62.0
2023-04-18T18:35:53.044Z,64.0
2023-04-18T18:48:53.036Z,66.0
2023-04-18T19:01:53.081Z,69.0
2023-04-18T19:14:53.062Z,71.0
2023-04-18T19:27:53.071Z,74.0
2023-04-18T19:40:53.682Z,76.0
2023-04-18T19:53:53.069Z,76.0
2023-04-18T20:06:53.070Z,75.0
2023-04-18T20:19:53.066Z,74.0
2023-04-18T20:32:53.094Z,75.0
2023-04-18T20:45:53.089Z,73.0
2023-04-18T20:58:53.093Z,74.0
2023-04-18T21:11:53.101Z,75.0
2023-04-18T21:24:53.091Z,77.0
2023-04-18T21:37:53.124Z,79.0
2023-04-18T21:50:53.124Z,80.0
2023-04-18T22:03:53.538Z,81.0
2023-04-18T22:16:53.223Z,82.0
2023-04-18T22:29:53.131Z,83.0
2023-04-18T22:42:53.194Z,84.0
2023-04-18T22:55:53.156Z,84.0
2023-04-18T23:08:53.148Z,84.0
2023-04-18T23:21:53.172Z,84.0
2023-04-18T23:34:53.189Z,83.0
2023-04-18T23:47:53.253Z,84.0
